KKLS/KLS METAR and TAF weather

Enter ICAO airport designator
Station Type Date Time Source
KKLS METAR 2019/04/18 14:56 UTC NOAA

KKLS 181456Z AUTO 14005KT 10SM OVC080 10/08 A3027 RMK AO2 SLP256 T01000078 55001


Station Type Date Time Source
KKLS Decoded METAR 2019/04/18 14:56 UTC NOAA

Kelso, Kelso-Longview Airport, WA, United States (KKLS) 46-07N 122-54W
Apr 18, 2019 - 10:56 AM EDT / 2019.04.18 1456 UTC
Wind: from the SE (140 degrees) at 6 MPH (5 KT):0
Visibility: 10 mile(s):0
Sky conditions: overcast
Temperature: 50.0 F (10.0 C)
Dew Point: 46.0 F (7.8 C)
Relative Humidity: 86%
Pressure (altimeter): 30.27 in. Hg (1025 hPa)
Pressure tendency: 0.00 inches (0.1 hPa) lower than three hours ago
ob: KKLS 181456Z AUTO 14005KT 10SM OVC080 10/08 A3027 RMK AO2 SLP256 T01000078 55001
cycle: 15

Station Type Date Time Source
KKLS TAF UTC NOAA

Error!

Example: see airport list